James Creek, Pennsylvania
Current Conditions -  °F | °C
As of 8:16 PM on Sunday 23 Nov 2014 (Local Time) from KAOO Reporting Station
Overcast Overcast  
Wind Chill: 50°   Ceiling: 1900
Heat Index: 50°   Visibility: 10mi
Dew Point: 38°   Wind: 13mph
Humidity: 63%   Direction: 170°S
Pressure: 29.89"   Gusts: 24mph
Location:  40.39°N, 78.17°W
Report Text: KAOO 240116Z AUTO 17011G21KT 10SM BKN019 OVC030 10/03 A2989 RMK AO2 T01000033
Loading
Personal Weather Stations






























Interactive Weather Map New forecast layout! Learn more

10-Day Weather Forecast

Advertisements
Track Severe Weather on mobile